パラオ の空港の天気 - METARとTAF

パラオ国際空港 ( PTRO / ROR ) - パラオ アイライ州
飛行場実況気象(Metar)
観測時間05/26 07:50 PWT (05/25 22:50 UTC)
風向・風速東 3m/s
視程10km以上
天気現象
全天の4割程度の雲 雲底高度 490m
全天の8割程度の雲 雲底高度 3660m
全天の8割程度の雲 雲底高度 9140m
気温28℃
湿度84%
気圧1012hPa
METARPTRO 252250Z 08005KT 14SM SCT016 BKN120 BKN300 28/25 A2989
過去の天気等 Google飛行場航空写真 Wunderground天気予報

過去48時間のMETAR

飛行場予報(TAF)
発表時間: 5/26 08:20 PWT (5/25 23:20 UTC)
予報対象時間: 26日9時 PWT ~ 27日9時 PWT
風向・風速東 5m/s
視程10km以上
天気現象周辺でしゅう雨
全天の4割程度の雲 雲底高度 490m
全天の4割程度の雲 雲底高度 3660m
PTRO 252320Z 2600/2624 09010KT P6SM VCSH SCT016 SCT120